sensor_id;sensor_type;location;lat;lon;timestamp;P1;durP1;ratioP1;P2;durP2;ratioP2
69744;SDS011;57015;50.120;-5.168;2022-12-07T00:01:52;3.07;;;1.17;;
69744;SDS011;57015;50.120;-5.168;2022-12-07T00:04:18;5.20;;;1.33;;
69744;SDS011;57015;50.120;-5.168;2022-12-07T00:06:45;2.88;;;0.93;;
69744;SDS011;57015;50.120;-5.168;2022-12-07T00:09:12;4.90;;;1.30;;
69744;SDS011;57015;50.120;-5.168;2022-12-07T00:11:39;4.27;;;1.20;;
69744;SDS011;57015;50.120;-5.168;2022-12-07T00:14:06;5.20;;;1.42;;
69744;SDS011;57015;50.120;-5.168;2022-12-07T00:16:34;4.50;;;1.00;;
69744;SDS011;57015;50.120;-5.168;2022-12-07T00:19:00;4.97;;;1.50;;
69744;SDS011;57015;50.120;-5.168;2022-12-07T00:21:26;4.70;;;1.30;;
69744;SDS011;57015;50.120;-5.168;2022-12-07T00:23:54;4.03;;;1.10;;
69744;SDS011;57015;50.120;-5.168;2022-12-07T00:26:21;3.13;;;1.13;;
69744;SDS011;57015;50.120;-5.168;2022-12-07T00:28:49;5.03;;;1.60;;
69744;SDS011;57015;50.120;-5.168;2022-12-07T00:31:16;4.32;;;1.10;;
69744;SDS011;57015;50.120;-5.168;2022-12-07T00:33:43;3.28;;;1.40;;
69744;SDS011;57015;50.120;-5.168;2022-12-07T00:36:09;3.00;;;1.10;;
69744;SDS011;57015;50.120;-5.168;2022-12-07T00:38:37;2.67;;;0.73;;
69744;SDS011;57015;50.120;-5.168;2022-12-07T00:41:04;4.38;;;1.42;;
69744;SDS011;57015;50.120;-5.168;2022-12-07T00:43:31;4.18;;;1.50;;
69744;SDS011;57015;50.120;-5.168;2022-12-07T00:45:57;5.43;;;1.50;;
69744;SDS011;57015;50.120;-5.168;2022-12-07T00:48:22;4.50;;;1.25;;
69744;SDS011;57015;50.120;-5.168;2022-12-07T00:50:48;4.03;;;1.48;;
69744;SDS011;57015;50.120;-5.168;2022-12-07T00:53:14;4.93;;;1.65;;
69744;SDS011;57015;50.120;-5.168;2022-12-07T00:55:40;5.00;;;1.40;;
69744;SDS011;57015;50.120;-5.168;2022-12-07T00:58:05;4.07;;;1.40;;
69744;SDS011;57015;50.120;-5.168;2022-12-07T01:00:31;3.90;;;1.13;;
69744;SDS011;57015;50.120;-5.168;2022-12-07T01:02:57;3.17;;;1.40;;
69744;SDS011;57015;50.120;-5.168;2022-12-07T01:05:22;5.13;;;1.90;;
69744;SDS011;57015;50.120;-5.168;2022-12-07T01:07:47;4.30;;;1.40;;
69744;SDS011;57015;50.120;-5.168;2022-12-07T01:10:13;3.43;;;1.20;;
69744;SDS011;57015;50.120;-5.168;2022-12-07T01:12:39;3.63;;;1.27;;
69744;SDS011;57015;50.120;-5.168;2022-12-07T01:15:04;4.63;;;1.60;;
69744;SDS011;57015;50.120;-5.168;2022-12-07T01:17:30;4.53;;;1.38;;
69744;SDS011;57015;50.120;-5.168;2022-12-07T01:19:56;3.77;;;1.30;;
69744;SDS011;57015;50.120;-5.168;2022-12-07T01:22:21;3.50;;;1.30;;
69744;SDS011;57015;50.120;-5.168;2022-12-07T01:24:47;3.37;;;1.10;;
69744;SDS011;57015;50.120;-5.168;2022-12-07T01:27:12;4.05;;;1.60;;
69744;SDS011;57015;50.120;-5.168;2022-12-07T01:29:38;5.33;;;1.30;;
69744;SDS011;57015;50.120;-5.168;2022-12-07T01:32:04;4.47;;;1.60;;
69744;SDS011;57015;50.120;-5.168;2022-12-07T01:34:29;4.23;;;1.30;;
69744;SDS011;57015;50.120;-5.168;2022-12-07T01:36:54;5.00;;;1.10;;
69744;SDS011;57015;50.120;-5.168;2022-12-07T01:39:20;4.17;;;1.30;;
69744;SDS011;57015;50.120;-5.168;2022-12-07T01:41:46;3.55;;;1.30;;
69744;SDS011;57015;50.120;-5.168;2022-12-07T01:44:19;2.97;;;1.10;;
69744;SDS011;57015;50.120;-5.168;2022-12-07T01:49:28;2.78;;;1.13;;
69744;SDS011;57015;50.120;-5.168;2022-12-07T01:52:37;3.95;;;1.15;;
69744;SDS011;57015;50.120;-5.168;2022-12-07T01:55:10;3.33;;;1.25;;
69744;SDS011;57015;50.120;-5.168;2022-12-07T01:57:39;3.13;;;1.13;;
69744;SDS011;57015;50.120;-5.168;2022-12-07T02:00:07;2.75;;;1.20;;
69744;SDS011;57015;50.120;-5.168;2022-12-07T02:02:34;3.42;;;1.17;;
69744;SDS011;57015;50.120;-5.168;2022-12-07T02:05:04;3.47;;;1.23;;
69744;SDS011;57015;50.120;-5.168;2022-12-07T02:07:30;4.13;;;1.27;;
69744;SDS011;57015;50.120;-5.168;2022-12-07T02:09:56;3.33;;;0.97;;
69744;SDS011;57015;50.120;-5.168;2022-12-07T02:12:22;4.18;;;1.67;;
69744;SDS011;57015;50.120;-5.168;2022-12-07T02:14:48;3.50;;;1.33;;
69744;SDS011;57015;50.120;-5.168;2022-12-07T02:17:19;3.97;;;1.15;;
69744;SDS011;57015;50.120;-5.168;2022-12-07T02:25:08;6.50;;;1.50;;
69744;SDS011;57015;50.120;-5.168;2022-12-07T02:27:50;2.95;;;1.17;;
69744;SDS011;57015;50.120;-5.168;2022-12-07T02:30:20;4.72;;;1.50;;
69744;SDS011;57015;50.120;-5.168;2022-12-07T02:33:00;3.65;;;1.20;;
69744;SDS011;57015;50.120;-5.168;2022-12-07T02:35:33;5.10;;;1.48;;
69744;SDS011;57015;50.120;-5.168;2022-12-07T02:38:02;3.33;;;1.10;;
69744;SDS011;57015;50.120;-5.168;2022-12-07T02:40:38;3.97;;;1.25;;
69744;SDS011;57015;50.120;-5.168;2022-12-07T02:43:21;3.45;;;1.05;;
69744;SDS011;57015;50.120;-5.168;2022-12-07T02:45:50;3.55;;;1.23;;
69744;SDS011;57015;50.120;-5.168;2022-12-07T02:48:17;3.13;;;0.93;;
69744;SDS011;57015;50.120;-5.168;2022-12-07T02:50:44;3.57;;;1.20;;
69744;SDS011;57015;50.120;-5.168;2022-12-07T02:55:54;3.28;;;1.05;;
69744;SDS011;57015;50.120;-5.168;2022-12-07T02:58:23;3.90;;;1.20;;
69744;SDS011;57015;50.120;-5.168;2022-12-07T03:01:01;2.73;;;0.80;;
69744;SDS011;57015;50.120;-5.168;2022-12-07T03:03:34;3.45;;;1.20;;
69744;SDS011;57015;50.120;-5.168;2022-12-07T03:06:06;2.78;;;1.10;;
69744;SDS011;57015;50.120;-5.168;2022-12-07T03:08:55;3.60;;;1.17;;
69744;SDS011;57015;50.120;-5.168;2022-12-07T03:17:00;3.65;;;1.33;;
69744;SDS011;57015;50.120;-5.168;2022-12-07T03:19:20;3.03;;;0.88;;
69744;SDS011;57015;50.120;-5.168;2022-12-07T03:21:49;4.43;;;1.08;;
69744;SDS011;57015;50.120;-5.168;2022-12-07T03:24:20;2.17;;;0.85;;
69744;SDS011;57015;50.120;-5.168;2022-12-07T03:26:48;3.73;;;1.30;;
69744;SDS011;57015;50.120;-5.168;2022-12-07T03:29:22;2.67;;;0.98;;
69744;SDS011;57015;50.120;-5.168;2022-12-07T03:31:52;2.63;;;0.90;;
69744;SDS011;57015;50.120;-5.168;2022-12-07T03:34:25;3.53;;;1.50;;
69744;SDS011;57015;50.120;-5.168;2022-12-07T03:40:03;3.03;;;1.20;;
69744;SDS011;57015;50.120;-5.168;2022-12-07T03:42:31;2.47;;;0.80;;
69744;SDS011;57015;50.120;-5.168;2022-12-07T03:44:57;2.65;;;0.90;;
69744;SDS011;57015;50.120;-5.168;2022-12-07T03:47:27;3.93;;;1.00;;
69744;SDS011;57015;50.120;-5.168;2022-12-07T03:50:02;3.25;;;1.00;;
69744;SDS011;57015;50.120;-5.168;2022-12-07T03:52:40;3.47;;;1.08;;
69744;SDS011;57015;50.120;-5.168;2022-12-07T03:55:11;3.28;;;1.10;;
69744;SDS011;57015;50.120;-5.168;2022-12-07T03:57:41;4.38;;;1.13;;
69744;SDS011;57015;50.120;-5.168;2022-12-07T04:00:09;3.13;;;1.13;;
69744;SDS011;57015;50.120;-5.168;2022-12-07T04:02:35;3.92;;;1.02;;
69744;SDS011;57015;50.120;-5.168;2022-12-07T04:05:01;5.28;;;1.30;;
69744;SDS011;57015;50.120;-5.168;2022-12-07T04:07:26;3.50;;;1.27;;
69744;SDS011;57015;50.120;-5.168;2022-12-07T04:09:52;2.30;;;0.90;;
69744;SDS011;57015;50.120;-5.168;2022-12-07T04:12:19;3.47;;;0.93;;
69744;SDS011;57015;50.120;-5.168;2022-12-07T04:14:45;3.25;;;1.10;;
69744;SDS011;57015;50.120;-5.168;2022-12-07T04:17:10;4.30;;;1.10;;
69744;SDS011;57015;50.120;-5.168;2022-12-07T04:19:36;3.63;;;1.30;;
69744;SDS011;57015;50.120;-5.168;2022-12-07T04:22:02;3.90;;;1.07;;
69744;SDS011;57015;50.120;-5.168;2022-12-07T04:24:28;4.60;;;1.30;;
69744;SDS011;57015;50.120;-5.168;2022-12-07T04:26:53;4.30;;;1.10;;
69744;SDS011;57015;50.120;-5.168;2022-12-07T04:29:19;4.00;;;1.23;;
69744;SDS011;57015;50.120;-5.168;2022-12-07T04:31:45;4.50;;;1.50;;
69744;SDS011;57015;50.120;-5.168;2022-12-07T04:34:11;3.90;;;1.40;;
69744;SDS011;57015;50.120;-5.168;2022-12-07T04:36:37;5.50;;;1.50;;
69744;SDS011;57015;50.120;-5.168;2022-12-07T04:39:03;4.82;;;1.52;;
69744;SDS011;57015;50.120;-5.168;2022-12-07T04:41:29;4.55;;;1.42;;
69744;SDS011;57015;50.120;-5.168;2022-12-07T04:43:55;4.97;;;1.60;;
69744;SDS011;57015;50.120;-5.168;2022-12-07T04:46:28;5.10;;;1.60;;
69744;SDS011;57015;50.120;-5.168;2022-12-07T04:48:54;3.63;;;1.37;;
69744;SDS011;57015;50.120;-5.168;2022-12-07T04:51:21;6.07;;;1.52;;
69744;SDS011;57015;50.120;-5.168;2022-12-07T04:53:48;4.60;;;1.40;;
69744;SDS011;57015;50.120;-5.168;2022-12-07T04:56:14;2.97;;;1.20;;
69744;SDS011;57015;50.120;-5.168;2022-12-07T04:58:41;3.75;;;1.30;;
69744;SDS011;57015;50.120;-5.168;2022-12-07T05:01:07;4.38;;;1.63;;
69744;SDS011;57015;50.120;-5.168;2022-12-07T05:03:32;3.70;;;1.30;;
69744;SDS011;57015;50.120;-5.168;2022-12-07T05:05:58;5.00;;;1.67;;
69744;SDS011;57015;50.120;-5.168;2022-12-07T05:08:23;4.43;;;1.20;;
69744;SDS011;57015;50.120;-5.168;2022-12-07T05:10:49;6.37;;;1.50;;
69744;SDS011;57015;50.120;-5.168;2022-12-07T05:13:14;7.22;;;1.63;;
69744;SDS011;57015;50.120;-5.168;2022-12-07T05:15:40;4.30;;;1.77;;
69744;SDS011;57015;50.120;-5.168;2022-12-07T05:18:07;7.47;;;1.52;;
69744;SDS011;57015;50.120;-5.168;2022-12-07T05:20:34;5.75;;;1.40;;
69744;SDS011;57015;50.120;-5.168;2022-12-07T05:22:59;4.93;;;1.60;;
69744;SDS011;57015;50.120;-5.168;2022-12-07T05:25:24;3.77;;;1.47;;
69744;SDS011;57015;50.120;-5.168;2022-12-07T05:27:50;4.50;;;1.50;;
69744;SDS011;57015;50.120;-5.168;2022-12-07T05:30:16;5.33;;;1.60;;
69744;SDS011;57015;50.120;-5.168;2022-12-07T05:32:41;5.17;;;1.63;;
69744;SDS011;57015;50.120;-5.168;2022-12-07T05:35:07;4.13;;;1.23;;
69744;SDS011;57015;50.120;-5.168;2022-12-07T05:37:32;4.60;;;1.20;;
69744;SDS011;57015;50.120;-5.168;2022-12-07T05:39:58;5.87;;;1.40;;
69744;SDS011;57015;50.120;-5.168;2022-12-07T05:42:23;5.00;;;1.40;;
69744;SDS011;57015;50.120;-5.168;2022-12-07T05:44:49;3.85;;;1.60;;
69744;SDS011;57015;50.120;-5.168;2022-12-07T05:47:15;5.73;;;1.70;;
69744;SDS011;57015;50.120;-5.168;2022-12-07T05:49:40;4.18;;;1.50;;
69744;SDS011;57015;50.120;-5.168;2022-12-07T05:52:06;4.73;;;1.10;;
69744;SDS011;57015;50.120;-5.168;2022-12-07T05:54:31;5.95;;;1.58;;
69744;SDS011;57015;50.120;-5.168;2022-12-07T05:56:57;4.27;;;1.20;;
69744;SDS011;57015;50.120;-5.168;2022-12-07T05:59:23;6.47;;;1.40;;
69744;SDS011;57015;50.120;-5.168;2022-12-07T06:01:56;4.28;;;1.42;;
69744;SDS011;57015;50.120;-5.168;2022-12-07T06:04:30;3.83;;;1.30;;
69744;SDS011;57015;50.120;-5.168;2022-12-07T06:06:57;4.10;;;1.10;;
69744;SDS011;57015;50.120;-5.168;2022-12-07T06:09:23;4.72;;;1.13;;
69744;SDS011;57015;50.120;-5.168;2022-12-07T06:11:50;6.60;;;1.27;;
69744;SDS011;57015;50.120;-5.168;2022-12-07T06:14:34;5.07;;;1.27;;
69744;SDS011;57015;50.120;-5.168;2022-12-07T06:16:59;3.57;;;1.10;;
69744;SDS011;57015;50.120;-5.168;2022-12-07T06:19:25;5.88;;;1.23;;
69744;SDS011;57015;50.120;-5.168;2022-12-07T06:21:51;3.47;;;1.07;;
69744;SDS011;57015;50.120;-5.168;2022-12-07T06:24:16;3.17;;;0.90;;
69744;SDS011;57015;50.120;-5.168;2022-12-07T06:26:42;2.88;;;1.08;;
69744;SDS011;57015;50.120;-5.168;2022-12-07T06:29:08;2.80;;;1.20;;
69744;SDS011;57015;50.120;-5.168;2022-12-07T06:31:33;3.28;;;0.90;;
69744;SDS011;57015;50.120;-5.168;2022-12-07T06:34:00;3.30;;;1.05;;
69744;SDS011;57015;50.120;-5.168;2022-12-07T06:36:27;3.80;;;0.93;;
69744;SDS011;57015;50.120;-5.168;2022-12-07T06:38:53;4.10;;;1.05;;
69744;SDS011;57015;50.120;-5.168;2022-12-07T06:41:18;2.87;;;0.70;;
69744;SDS011;57015;50.120;-5.168;2022-12-07T06:43:43;2.97;;;1.00;;
69744;SDS011;57015;50.120;-5.168;2022-12-07T06:46:09;3.47;;;1.27;;
69744;SDS011;57015;50.120;-5.168;2022-12-07T06:48:34;3.73;;;1.20;;
69744;SDS011;57015;50.120;-5.168;2022-12-07T06:51:00;2.67;;;1.05;;
69744;SDS011;57015;50.120;-5.168;2022-12-07T06:53:25;2.40;;;0.95;;
69744;SDS011;57015;50.120;-5.168;2022-12-07T06:55:50;2.93;;;1.00;;
69744;SDS011;57015;50.120;-5.168;2022-12-07T06:58:16;4.13;;;1.13;;
69744;SDS011;57015;50.120;-5.168;2022-12-07T07:00:42;3.03;;;0.93;;
69744;SDS011;57015;50.120;-5.168;2022-12-07T07:03:08;2.47;;;1.10;;
69744;SDS011;57015;50.120;-5.168;2022-12-07T07:05:33;5.37;;;1.00;;
69744;SDS011;57015;50.120;-5.168;2022-12-07T07:07:59;3.10;;;0.80;;
69744;SDS011;57015;50.120;-5.168;2022-12-07T07:10:24;5.13;;;0.90;;
69744;SDS011;57015;50.120;-5.168;2022-12-07T07:12:50;3.28;;;0.70;;
69744;SDS011;57015;50.120;-5.168;2022-12-07T07:15:15;4.32;;;1.05;;
69744;SDS011;57015;50.120;-5.168;2022-12-07T07:17:40;3.40;;;0.83;;
69744;SDS011;57015;50.120;-5.168;2022-12-07T07:20:06;2.27;;;0.87;;
69744;SDS011;57015;50.120;-5.168;2022-12-07T07:22:32;3.63;;;0.80;;
69744;SDS011;57015;50.120;-5.168;2022-12-07T07:24:57;3.45;;;1.05;;
69744;SDS011;57015;50.120;-5.168;2022-12-07T07:27:22;3.27;;;0.90;;
69744;SDS011;57015;50.120;-5.168;2022-12-07T07:29:48;2.97;;;0.90;;
69744;SDS011;57015;50.120;-5.168;2022-12-07T07:32:13;2.33;;;0.70;;
69744;SDS011;57015;50.120;-5.168;2022-12-07T07:34:39;2.33;;;0.70;;
69744;SDS011;57015;50.120;-5.168;2022-12-07T07:37:04;2.97;;;1.02;;
69744;SDS011;57015;50.120;-5.168;2022-12-07T07:39:30;3.37;;;0.57;;
69744;SDS011;57015;50.120;-5.168;2022-12-07T07:41:55;3.53;;;0.80;;
69744;SDS011;57015;50.120;-5.168;2022-12-07T07:44:20;3.10;;;0.80;;
69744;SDS011;57015;50.120;-5.168;2022-12-07T07:46:46;2.47;;;0.60;;
69744;SDS011;57015;50.120;-5.168;2022-12-07T07:49:12;5.00;;;1.00;;
69744;SDS011;57015;50.120;-5.168;2022-12-07T07:51:37;5.90;;;1.40;;
69744;SDS011;57015;50.120;-5.168;2022-12-07T07:54:02;2.80;;;1.00;;
69744;SDS011;57015;50.120;-5.168;2022-12-07T07:56:28;3.20;;;0.90;;
69744;SDS011;57015;50.120;-5.168;2022-12-07T07:58:54;2.70;;;0.87;;
69744;SDS011;57015;50.120;-5.168;2022-12-07T08:01:19;3.13;;;0.80;;
69744;SDS011;57015;50.120;-5.168;2022-12-07T08:03:48;2.10;;;0.73;;
69744;SDS011;57015;50.120;-5.168;2022-12-07T08:06:13;3.40;;;0.73;;
69744;SDS011;57015;50.120;-5.168;2022-12-07T08:08:39;5.27;;;0.90;;
69744;SDS011;57015;50.120;-5.168;2022-12-07T08:11:04;3.00;;;0.70;;
69744;SDS011;57015;50.120;-5.168;2022-12-07T08:13:31;6.18;;;1.67;;
69744;SDS011;57015;50.120;-5.168;2022-12-07T08:15:56;5.17;;;1.60;;
69744;SDS011;57015;50.120;-5.168;2022-12-07T08:18:21;4.80;;;1.10;;
69744;SDS011;57015;50.120;-5.168;2022-12-07T08:20:47;6.00;;;1.70;;
69744;SDS011;57015;50.120;-5.168;2022-12-07T08:23:12;4.93;;;1.40;;
69744;SDS011;57015;50.120;-5.168;2022-12-07T08:25:37;3.73;;;1.77;;
69744;SDS011;57015;50.120;-5.168;2022-12-07T08:28:03;4.67;;;1.50;;
69744;SDS011;57015;50.120;-5.168;2022-12-07T08:30:29;5.82;;;1.42;;
69744;SDS011;57015;50.120;-5.168;2022-12-07T08:32:55;4.20;;;1.30;;
69744;SDS011;57015;50.120;-5.168;2022-12-07T08:35:21;7.03;;;2.08;;
69744;SDS011;57015;50.120;-5.168;2022-12-07T08:37:46;6.90;;;2.50;;
69744;SDS011;57015;50.120;-5.168;2022-12-07T08:40:12;4.13;;;1.40;;
69744;SDS011;57015;50.120;-5.168;2022-12-07T08:42:43;4.40;;;1.90;;
69744;SDS011;57015;50.120;-5.168;2022-12-07T08:45:15;4.32;;;1.70;;
69744;SDS011;57015;50.120;-5.168;2022-12-07T08:47:55;5.35;;;1.63;;
69744;SDS011;57015;50.120;-5.168;2022-12-07T08:50:35;3.75;;;1.25;;
69744;SDS011;57015;50.120;-5.168;2022-12-07T08:53:01;6.00;;;1.40;;
69744;SDS011;57015;50.120;-5.168;2022-12-07T08:55:28;6.47;;;2.23;;
69744;SDS011;57015;50.120;-5.168;2022-12-07T08:57:54;4.95;;;1.67;;
69744;SDS011;57015;50.120;-5.168;2022-12-07T09:00:19;4.63;;;1.50;;
69744;SDS011;57015;50.120;-5.168;2022-12-07T09:02:45;4.80;;;1.73;;
69744;SDS011;57015;50.120;-5.168;2022-12-07T09:05:11;7.05;;;1.90;;
69744;SDS011;57015;50.120;-5.168;2022-12-07T09:07:39;5.05;;;1.30;;
69744;SDS011;57015;50.120;-5.168;2022-12-07T09:10:05;4.83;;;1.20;;
69744;SDS011;57015;50.120;-5.168;2022-12-07T09:12:31;3.85;;;0.73;;
69744;SDS011;57015;50.120;-5.168;2022-12-07T09:14:56;2.93;;;1.10;;
69744;SDS011;57015;50.120;-5.168;2022-12-07T09:17:22;5.63;;;1.30;;
69744;SDS011;57015;50.120;-5.168;2022-12-07T09:19:47;4.73;;;1.50;;
69744;SDS011;57015;50.120;-5.168;2022-12-07T09:22:12;5.07;;;1.57;;
69744;SDS011;57015;50.120;-5.168;2022-12-07T09:24:38;5.45;;;1.92;;
69744;SDS011;57015;50.120;-5.168;2022-12-07T09:27:03;5.87;;;1.77;;
69744;SDS011;57015;50.120;-5.168;2022-12-07T09:29:29;4.80;;;1.60;;
69744;SDS011;57015;50.120;-5.168;2022-12-07T09:31:54;3.63;;;1.70;;
69744;SDS011;57015;50.120;-5.168;2022-12-07T09:34:19;4.23;;;1.40;;
69744;SDS011;57015;50.120;-5.168;2022-12-07T09:36:45;4.10;;;1.60;;
69744;SDS011;57015;50.120;-5.168;2022-12-07T09:39:10;3.40;;;1.35;;
69744;SDS011;57015;50.120;-5.168;2022-12-07T09:41:39;4.20;;;1.20;;
69744;SDS011;57015;50.120;-5.168;2022-12-07T09:44:09;6.63;;;1.65;;
69744;SDS011;57015;50.120;-5.168;2022-12-07T09:46:38;3.80;;;1.47;;
69744;SDS011;57015;50.120;-5.168;2022-12-07T09:49:08;3.90;;;1.55;;
69744;SDS011;57015;50.120;-5.168;2022-12-07T09:51:43;3.50;;;1.20;;
69744;SDS011;57015;50.120;-5.168;2022-12-07T09:54:11;2.70;;;1.08;;
69744;SDS011;57015;50.120;-5.168;2022-12-07T09:56:37;4.78;;;1.30;;
69744;SDS011;57015;50.120;-5.168;2022-12-07T09:59:03;6.35;;;1.38;;
69744;SDS011;57015;50.120;-5.168;2022-12-07T10:01:30;5.20;;;1.30;;
69744;SDS011;57015;50.120;-5.168;2022-12-07T10:04:18;4.25;;;1.55;;
69744;SDS011;57015;50.120;-5.168;2022-12-07T10:06:46;4.00;;;1.00;;
69744;SDS011;57015;50.120;-5.168;2022-12-07T10:09:13;4.85;;;1.52;;
69744;SDS011;57015;50.120;-5.168;2022-12-07T10:14:37;4.22;;;1.30;;
69744;SDS011;57015;50.120;-5.168;2022-12-07T10:20:21;2.77;;;0.80;;
69744;SDS011;57015;50.120;-5.168;2022-12-07T10:22:54;3.63;;;1.20;;
69744;SDS011;57015;50.120;-5.168;2022-12-07T10:25:27;3.40;;;0.98;;
69744;SDS011;57015;50.120;-5.168;2022-12-07T10:30:52;4.03;;;1.10;;
69744;SDS011;57015;50.120;-5.168;2022-12-07T10:33:32;2.80;;;0.90;;
69744;SDS011;57015;50.120;-5.168;2022-12-07T10:38:44;5.05;;;0.90;;
69744;SDS011;57015;50.120;-5.168;2022-12-07T10:41:11;5.28;;;0.93;;
69744;SDS011;57015;50.120;-5.168;2022-12-07T10:43:36;3.77;;;0.90;;
69744;SDS011;57015;50.120;-5.168;2022-12-07T11:07:34;5.72;;;1.40;;
69744;SDS011;57015;50.120;-5.168;2022-12-07T11:21:32;3.80;;;1.35;;
69744;SDS011;57015;50.120;-5.168;2022-12-07T11:24:32;8.98;;;2.90;;
69744;SDS011;57015;50.120;-5.168;2022-12-07T11:27:00;7.18;;;2.88;;
69744;SDS011;57015;50.120;-5.168;2022-12-07T11:30:18;8.57;;;3.53;;
69744;SDS011;57015;50.120;-5.168;2022-12-07T11:41:25;10.85;;;2.33;;
69744;SDS011;57015;50.120;-5.168;2022-12-07T11:43:56;4.13;;;1.40;;
69744;SDS011;57015;50.120;-5.168;2022-12-07T11:46:35;7.88;;;1.95;;
69744;SDS011;57015;50.120;-5.168;2022-12-07T11:49:10;10.90;;;2.33;;
69744;SDS011;57015;50.120;-5.168;2022-12-07T11:51:51;6.45;;;1.52;;
69744;SDS011;57015;50.120;-5.168;2022-12-07T11:54:19;5.20;;;1.75;;
69744;SDS011;57015;50.120;-5.168;2022-12-07T11:56:48;5.63;;;1.30;;
69744;SDS011;57015;50.120;-5.168;2022-12-07T11:59:32;5.50;;;1.58;;
69744;SDS011;57015;50.120;-5.168;2022-12-07T12:02:11;3.15;;;0.60;;
69744;SDS011;57015;50.120;-5.168;2022-12-07T12:04:47;2.47;;;0.77;;
69744;SDS011;57015;50.120;-5.168;2022-12-07T12:07:21;4.07;;;0.80;;
69744;SDS011;57015;50.120;-5.168;2022-12-07T12:09:59;3.17;;;0.60;;
69744;SDS011;57015;50.120;-5.168;2022-12-07T12:20:46;4.60;;;0.82;;
69744;SDS011;57015;50.120;-5.168;2022-12-07T12:23:51;4.20;;;0.80;;
69744;SDS011;57015;50.120;-5.168;2022-12-07T12:26:22;3.58;;;0.90;;
69744;SDS011;57015;50.120;-5.168;2022-12-07T12:33:47;4.32;;;1.00;;
69744;SDS011;57015;50.120;-5.168;2022-12-07T12:36:19;4.63;;;1.00;;
69744;SDS011;57015;50.120;-5.168;2022-12-07T12:46:47;5.32;;;0.93;;
69744;SDS011;57015;50.120;-5.168;2022-12-07T12:51:43;3.53;;;1.23;;
69744;SDS011;57015;50.120;-5.168;2022-12-07T12:56:55;8.00;;;1.10;;
69744;SDS011;57015;50.120;-5.168;2022-12-07T12:59:31;4.35;;;0.63;;
69744;SDS011;57015;50.120;-5.168;2022-12-07T13:02:14;5.20;;;1.00;;
69744;SDS011;57015;50.120;-5.168;2022-12-07T13:13:02;4.05;;;1.05;;
69744;SDS011;57015;50.120;-5.168;2022-12-07T13:15:32;5.27;;;1.30;;
69744;SDS011;57015;50.120;-5.168;2022-12-07T13:17:59;4.43;;;1.00;;
69744;SDS011;57015;50.120;-5.168;2022-12-07T13:23:36;4.18;;;0.65;;
69744;SDS011;57015;50.120;-5.168;2022-12-07T13:28:41;3.07;;;0.63;;
69744;SDS011;57015;50.120;-5.168;2022-12-07T13:33:35;5.25;;;0.70;;
69744;SDS011;57015;50.120;-5.168;2022-12-07T13:36:01;2.67;;;0.63;;
69744;SDS011;57015;50.120;-5.168;2022-12-07T13:38:28;2.30;;;0.60;;
69744;SDS011;57015;50.120;-5.168;2022-12-07T13:40:59;4.77;;;0.50;;
69744;SDS011;57015;50.120;-5.168;2022-12-07T13:49:27;3.70;;;0.70;;
69744;SDS011;57015;50.120;-5.168;2022-12-07T13:51:54;3.45;;;0.63;;
69744;SDS011;57015;50.120;-5.168;2022-12-07T13:54:32;2.33;;;0.70;;
69744;SDS011;57015;50.120;-5.168;2022-12-07T13:56:57;4.40;;;1.05;;
69744;SDS011;57015;50.120;-5.168;2022-12-07T13:59:24;2.43;;;0.60;;
69744;SDS011;57015;50.120;-5.168;2022-12-07T14:01:50;4.53;;;0.82;;
69744;SDS011;57015;50.120;-5.168;2022-12-07T14:04:17;4.80;;;0.75;;
69744;SDS011;57015;50.120;-5.168;2022-12-07T14:06:52;5.53;;;0.80;;
69744;SDS011;57015;50.120;-5.168;2022-12-07T14:09:18;2.93;;;0.60;;
69744;SDS011;57015;50.120;-5.168;2022-12-07T14:11:47;6.15;;;0.77;;
69744;SDS011;57015;50.120;-5.168;2022-12-07T14:14:16;5.23;;;1.07;;
69744;SDS011;57015;50.120;-5.168;2022-12-07T14:16:54;5.07;;;0.73;;
69744;SDS011;57015;50.120;-5.168;2022-12-07T14:19:41;3.90;;;1.10;;
69744;SDS011;57015;50.120;-5.168;2022-12-07T14:22:26;2.63;;;0.60;;
69744;SDS011;57015;50.120;-5.168;2022-12-07T14:27:38;2.47;;;0.50;;
69744;SDS011;57015;50.120;-5.168;2022-12-07T14:30:04;4.35;;;0.70;;
69744;SDS011;57015;50.120;-5.168;2022-12-07T14:32:31;4.35;;;0.75;;
69744;SDS011;57015;50.120;-5.168;2022-12-07T14:37:35;4.13;;;1.27;;
69744;SDS011;57015;50.120;-5.168;2022-12-07T14:40:02;2.53;;;0.63;;
69744;SDS011;57015;50.120;-5.168;2022-12-07T14:42:28;4.22;;;1.17;;
69744;SDS011;57015;50.120;-5.168;2022-12-07T14:44:55;6.25;;;1.80;;
69744;SDS011;57015;50.120;-5.168;2022-12-07T14:47:21;3.60;;;0.90;;
69744;SDS011;57015;50.120;-5.168;2022-12-07T14:49:47;5.57;;;1.00;;
69744;SDS011;57015;50.120;-5.168;2022-12-07T14:52:16;4.23;;;0.80;;
69744;SDS011;57015;50.120;-5.168;2022-12-07T14:54:44;2.50;;;0.90;;
69744;SDS011;57015;50.120;-5.168;2022-12-07T14:57:10;3.97;;;1.00;;
69744;SDS011;57015;50.120;-5.168;2022-12-07T14:59:36;2.15;;;0.80;;
69744;SDS011;57015;50.120;-5.168;2022-12-07T15:02:02;4.78;;;0.95;;
69744;SDS011;57015;50.120;-5.168;2022-12-07T15:04:27;5.13;;;1.03;;
69744;SDS011;57015;50.120;-5.168;2022-12-07T15:06:57;6.23;;;0.80;;
69744;SDS011;57015;50.120;-5.168;2022-12-07T15:09:23;3.65;;;0.95;;
69744;SDS011;57015;50.120;-5.168;2022-12-07T15:11:48;2.50;;;0.87;;
69744;SDS011;57015;50.120;-5.168;2022-12-07T15:14:13;4.43;;;0.70;;
69744;SDS011;57015;50.120;-5.168;2022-12-07T15:16:40;3.07;;;0.70;;
69744;SDS011;57015;50.120;-5.168;2022-12-07T15:19:20;3.03;;;1.10;;
69744;SDS011;57015;50.120;-5.168;2022-12-07T15:21:51;4.88;;;0.85;;
69744;SDS011;57015;50.120;-5.168;2022-12-07T15:24:16;3.60;;;0.70;;
69744;SDS011;57015;50.120;-5.168;2022-12-07T15:26:42;2.80;;;0.77;;
69744;SDS011;57015;50.120;-5.168;2022-12-07T15:29:08;2.60;;;0.60;;
69744;SDS011;57015;50.120;-5.168;2022-12-07T15:31:34;2.75;;;0.70;;
69744;SDS011;57015;50.120;-5.168;2022-12-07T15:33:59;5.60;;;1.03;;
69744;SDS011;57015;50.120;-5.168;2022-12-07T15:36:26;5.43;;;0.60;;
69744;SDS011;57015;50.120;-5.168;2022-12-07T15:38:53;2.20;;;0.70;;
69744;SDS011;57015;50.120;-5.168;2022-12-07T15:41:19;2.47;;;0.50;;
69744;SDS011;57015;50.120;-5.168;2022-12-07T15:43:45;3.17;;;0.57;;
69744;SDS011;57015;50.120;-5.168;2022-12-07T15:46:33;4.25;;;0.75;;
69744;SDS011;57015;50.120;-5.168;2022-12-07T15:49:00;3.97;;;0.70;;
69744;SDS011;57015;50.120;-5.168;2022-12-07T15:51:26;3.30;;;0.57;;
69744;SDS011;57015;50.120;-5.168;2022-12-07T15:53:52;3.15;;;0.80;;
69744;SDS011;57015;50.120;-5.168;2022-12-07T15:56:18;4.18;;;1.10;;
69744;SDS011;57015;50.120;-5.168;2022-12-07T15:58:44;3.37;;;0.60;;
69744;SDS011;57015;50.120;-5.168;2022-12-07T16:01:16;3.63;;;0.60;;
69744;SDS011;57015;50.120;-5.168;2022-12-07T16:03:42;2.45;;;0.52;;
69744;SDS011;57015;50.120;-5.168;2022-12-07T16:06:09;3.00;;;0.55;;
69744;SDS011;57015;50.120;-5.168;2022-12-07T16:08:35;3.17;;;0.70;;
69744;SDS011;57015;50.120;-5.168;2022-12-07T16:11:04;3.00;;;0.55;;
69744;SDS011;57015;50.120;-5.168;2022-12-07T16:13:33;3.55;;;0.60;;
69744;SDS011;57015;50.120;-5.168;2022-12-07T16:16:06;2.47;;;0.70;;
69744;SDS011;57015;50.120;-5.168;2022-12-07T16:18:34;5.40;;;1.00;;
69744;SDS011;57015;50.120;-5.168;2022-12-07T16:20:59;4.83;;;0.77;;
69744;SDS011;57015;50.120;-5.168;2022-12-07T16:23:25;6.27;;;1.07;;
69744;SDS011;57015;50.120;-5.168;2022-12-07T16:25:51;2.05;;;0.60;;
69744;SDS011;57015;50.120;-5.168;2022-12-07T16:28:16;3.27;;;0.77;;
69744;SDS011;57015;50.120;-5.168;2022-12-07T16:30:41;3.63;;;1.10;;
69744;SDS011;57015;50.120;-5.168;2022-12-07T16:33:07;3.80;;;1.27;;
69744;SDS011;57015;50.120;-5.168;2022-12-07T16:35:32;4.07;;;1.00;;
69744;SDS011;57015;50.120;-5.168;2022-12-07T16:37:57;4.40;;;0.93;;
69744;SDS011;57015;50.120;-5.168;2022-12-07T16:40:23;3.07;;;1.00;;
69744;SDS011;57015;50.120;-5.168;2022-12-07T16:42:48;5.60;;;1.50;;
69744;SDS011;57015;50.120;-5.168;2022-12-07T16:45:14;3.40;;;0.95;;
69744;SDS011;57015;50.120;-5.168;2022-12-07T16:47:39;6.87;;;1.37;;